• Join FlightAware (Why Join?)
  • Login
  • US Flag 
09:42PM EDT


 

Airport Tracker/Info


-or-


 

Live Flight TrackerFlight Track Log ✈ GPD95 ✈ 12-Jul-2013 ✈ KTEB - KMVY

Flight Track Log - Related Links

Times and Time Zones

All times are in EDT time to prevent confusion due to time zone crossing. See the GPD95 flight status page for this flight to view local times or setup timezone preferences in your user account.

Time Position Orientation Groundspeed Altitude Reporting Facility
EDT Latitude Longitude Course Direction KTS MPH feet Rate Location/Type
07:41PM 40.9000 -74.0167 21° North 103 119 1,500  Level New York TRACON
07:42PM 40.9167 -73.9833 57° Northeast 105 121 2,200 600 Climbing New York TRACON
07:43PM 40.9333 -73.9500 56° Northeast 95 109 2,800 600 Climbing New York TRACON
07:44PM 40.9500 -73.9333 37° Northeast 94 108 3,400 300 Climbing New York TRACON
07:45PM 40.9667 -73.9000 56° Northeast 122 140 3,500 300 Climbing New York TRACON
07:46PM 40.9833 -73.8500 66° East 117 135 4,000 420 Climbing New York TRACON
07:47PM 40.9833 -73.8167 90° East 111 128 4,400 360 Climbing New York TRACON
07:48PM 41.0000 -73.7833 56° Northeast 113 130 4,800 420 Climbing New York TRACON
07:49PM 41.0000 -73.7333 90° East 111 128 5,300 300 Climbing New York TRACON
07:50PM 41.0000 -73.7000 90° East 125 144 5,500 60 Climbing New York TRACON
07:51PM 41.0167 -73.6500 66° East 135 155 5,500  Level New York TRACON
07:52PM 41.0333 -73.6167 56° Northeast 137 158 5,500 120 Level New York TRACON
07:53PM 41.0500 -73.5667 66° East 127 146 5,800 300 Climbing New York TRACON
07:54PM 41.0667 -73.5333 56° Northeast 123 142 6,200 420 Climbing New York TRACON
07:55PM 41.0833 -73.4833 66° East 118 136 6,700 480 Climbing New York TRACON
07:56PM 41.1167 -73.4500 37° Northeast 115 132 7,200 360 Climbing New York TRACON
07:57PM 41.1333 -73.4167 56° Northeast 119 137 7,500 120 Climbing New York TRACON
07:58PM 41.1500 -73.3833 56° Northeast 134 154 7,500  Level New York TRACON
07:59PM 41.1667 -73.3333 66° East 142 163 7,500  Level New York TRACON
08:00PM 41.2000 -73.3000 37° Northeast 146 168 7,500  Level New York TRACON
08:01PM 41.2167 -73.2500 66° East 143 165 7,500  Level New York TRACON
08:02PM 41.2333 -73.2167 56° Northeast 145 167 7,500  Level New York TRACON
08:03PM 41.2333 -73.1500 90° East 143 165 7,500  Level New York TRACON
08:04PM 41.2333 -73.1000 90° East 144 166 7,500  Level New York TRACON
08:05PM 41.2333 -73.0500 90° East 141 162 7,500  Level New York TRACON
08:06PM 41.2333 -73.0000 90° East 140 161 7,500  Level New York TRACON
08:07PM 41.2500 -72.9500 66° East 144 166 7,500  Level New York TRACON
08:08PM 41.2500 -72.9000 90° East 144 166 7,500  Level New York TRACON
08:09PM 41.2500 -72.8500 90° East 146 168 7,500  Level New York TRACON
08:10PM 41.2500 -72.8000 90° East 144 166 7,500  Level New York TRACON
08:11PM 41.2558 -72.7383 83° East 142 163 7,600 -120 Climbing Boston Center
08:14PM 41.2667 -72.6000 84° East 154 177 7,200 -180 Descending New York TRACON
08:15PM 41.2833 -72.5500 66° East 159 183 7,100 -120 Descending New York TRACON
08:15PM 41.2811 -72.5203 96° East 150 173 7,100 -60 Level Boston Center
08:17PM 41.2875 -72.4428 84° East 149 171 7,000 -60 Descending Boston Center
08:18PM 41.2939 -72.3903 81° East 159 183 7,000  Level Boston Center
08:18PM 41.2978 -72.3517 82° East 144 166 7,000  Level Boston Center
08:20PM 41.3061 -72.2825 81° East 142 163 7,000  Level Boston Center
08:21PM 41.3103 -72.2383 83° East 147 169 7,000  Level Boston Center
08:22PM 41.3164 -72.1886 81° East 145 167 7,000  Level Boston Center
08:23PM 41.3247 -72.1333 79° East 145 167 7,000  Level Boston Center
08:24PM 41.3286 -72.0808 84° East 147 169 7,000  Level Boston Center
08:24PM 41.3347 -72.0308 81° East 145 167 7,000  Level Boston Center
08:25PM 41.3344 -71.9756 90° East 147 169 7,000  Level Boston Center
08:27PM 41.3383 -71.9175 85° East 146 168 7,000  Level Boston Center
08:27PM 41.3381 -71.8678 90° East 146 168 7,000  Level Boston Center
08:28PM 41.3419 -71.8153 84° East 148 170 7,000  Level Boston Center
08:29PM 41.3458 -71.7628 84° East 148 170 7,000  Level Boston Center
08:30PM 41.3456 -71.7103 90° East 158 182 7,000  Level Boston Center
08:32PM 41.3492 -71.6436 86° East 148 170 7,000  Level Boston Center
08:33PM 41.3511 -71.5883 87° East 159 183 7,000  Level Boston Center
08:34PM 41.3567 -71.5275 83° East 148 170 7,000  Level Boston Center
08:35PM 41.3583 -71.4778 87° East 150 173 7,000  Level Boston Center
08:36PM 41.3600 -71.4169 88° East 151 174 7,000  Level Boston Center
08:37PM 41.3636 -71.3586 85° East 149 171 7,000  Level Boston Center
08:38PM 41.3672 -71.3061 85° East 151 174 7,000  Level Boston Center
08:39PM 41.3689 -71.2508 88° East 151 174 7,000  Level Boston Center
08:40PM 41.3722 -71.1925 86° East 144 166 7,000  Level Boston Center
08:41PM 41.3736 -71.1289 88° East 150 173 7,000  Level Boston Center
08:43PM 41.3689 -71.0523 95° East  Level FlightAware Approximate
08:50PM 41.3783 -70.7289 87° East  Level FlightAware Approximate
08:51PM 41.3801 -70.6829 87° East  Level FlightAware Approximate
08:52PM 41.3819 -70.6368 87° East  Level FlightAware Approximate
08:53PM 41.3833 -70.6000 87° East  Level FlightAware Approximate
08:54PM 41.3934 -70.6139 87° East  Level Estimated
08:55PM 41.3934 -70.6139 87° East  Level Estimated
08:56PM 41.3934 -70.6139 87° East  Level Estimated
08:57PM 41.3934 -70.6139 87° East  Level Estimated
08:58PM 41.3934 -70.6139 87° East  Level Estimated
08:59PM 41.3934 -70.6139 87° East  Level Estimated
09:00PM 41.3934 -70.6139 87° East  Level Estimated
09:01PM 41.3934 -70.6139 87° East  Level Estimated
09:02PM 41.3934 -70.6139 87° East  Level Estimated
09:03PM 41.3934 -70.6139 87° East  Level Estimated
09:04PM 41.3934 -70.6139 87° East  Level Estimated